Terminal Aerodrome Forecast
Issued by NWS Wakefield, VA

Home | Current Version | Previous Version | Text Only | Print | Product List | Glossary On
Versions: 1 2 3 4 5 6 7 8 9 10 11 12 13 14 15 16 17 18 19 20 21 22
141
FTUS41 KAKQ 310132 AAA
TAFORF
TAF AMD
KORF 310132Z 3102/3124 19004KT P6SM BKN006 BKN035
      TEMPO 3102/3103 2SM -RA BR OVC004
     FM310300 VRB03KT 3SM BR OVC004
     FM310600 00000KT 1SM -DZ BR OVC002
     FM311200 04005KT P6SM -RA OVC004
     FM311700 06006KT P6SM SCT007 BKN015=

USA.gov is the U.S. government's official web portal to all federal, state and local government web resources and services.